createdAt,value
2022-10-22T00:03:00.653Z,36.50
2022-10-22T00:08:03.669Z,37.93
2022-10-22T00:13:06.533Z,34.83
2022-10-22T00:18:09.312Z,36.60
2022-10-22T00:23:12.260Z,32.28
2022-10-22T00:28:15.509Z,35.28
2022-10-22T00:33:18.244Z,28.23
2022-10-22T00:38:21.303Z,35.80
2022-10-22T00:43:23.995Z,30.60
2022-10-22T00:48:32.330Z,34.80
2022-10-22T00:53:48.327Z,33.55
2022-10-22T00:58:55.799Z,31.13
2022-10-22T01:03:59.210Z,31.92
2022-10-22T01:09:20.183Z,35.05
2022-10-22T01:14:30.543Z,28.92
2022-10-22T01:19:57.380Z,33.13
2022-10-22T01:25:25.134Z,31.47
2022-10-22T01:30:28.190Z,33.38
2022-10-22T01:35:37.949Z,25.95
2022-10-22T01:40:41.274Z,30.23
2022-10-22T01:45:48.761Z,28.63
2022-10-22T01:51:13.018Z,31.20
2022-10-22T01:56:41.803Z,30.80
2022-10-22T02:01:57.382Z,33.58
2022-10-22T02:07:04.166Z,33.08
2022-10-22T02:12:08.709Z,34.20
2022-10-22T02:17:16.450Z,32.30
2022-10-22T02:22:19.348Z,28.17
2022-10-22T02:27:27.909Z,29.35
2022-10-22T02:32:51.788Z,33.28
2022-10-22T02:37:57.309Z,30.13
2022-10-22T02:43:00.100Z,27.20
2022-10-22T02:48:04.453Z,32.72
2022-10-22T02:53:07.213Z,32.40
2022-10-22T02:58:09.901Z,31.27
2022-10-22T03:03:12.590Z,31.08
2022-10-22T03:08:15.392Z,37.70
2022-10-22T03:13:18.353Z,34.15
2022-10-22T03:18:21.138Z,37.92
2022-10-22T03:23:23.717Z,35.97
2022-10-22T03:28:27.180Z,36.72
2022-10-22T03:33:29.897Z,38.23
2022-10-22T03:38:33.041Z,39.65
2022-10-22T03:43:37.510Z,34.28
2022-10-22T03:48:40.211Z,30.20
2022-10-22T03:53:42.868Z,33.35
2022-10-22T03:58:46.056Z,29.83
2022-10-22T04:03:48.799Z,31.88
2022-10-22T04:08:51.582Z,28.90
2022-10-22T04:13:54.349Z,29.55
2022-10-22T04:18:58.180Z,36.55
2022-10-22T04:24:01.696Z,28.03
2022-10-22T04:29:06.988Z,26.98
2022-10-22T04:34:10.341Z,33.75
2022-10-22T04:39:13.390Z,36.03
2022-10-22T04:44:16.855Z,28.58
2022-10-22T04:49:20.555Z,33.67
2022-10-22T04:54:23.498Z,30.75
2022-10-22T04:59:26.291Z,24.92
2022-10-22T05:04:28.981Z,29.02
2022-10-22T05:09:31.639Z,29.50
2022-10-22T05:14:34.554Z,25.27
2022-10-22T05:19:37.432Z,26.02
2022-10-22T05:24:40.199Z,34.03
2022-10-22T05:29:43.398Z,28.38
2022-10-22T05:34:46.189Z,26.77
2022-10-22T05:39:57.496Z,28.60
2022-10-22T05:45:09.809Z,28.27
2022-10-22T05:50:12.699Z,30.45
2022-10-22T05:55:15.501Z,27.88
2022-10-22T06:00:18.625Z,32.25
2022-10-22T06:05:21.523Z,29.07
2022-10-22T06:10:24.704Z,29.00
2022-10-22T06:15:27.999Z,33.58
2022-10-22T06:20:30.819Z,29.35
2022-10-22T06:25:33.930Z,29.00
2022-10-22T06:30:42.887Z,28.37
2022-10-22T06:35:48.879Z,30.30
2022-10-22T06:40:51.826Z,32.55
2022-10-22T06:46:00.021Z,32.95
2022-10-22T06:51:04.790Z,43.58
2022-10-22T06:56:13.260Z,34.73
2022-10-22T07:01:17.556Z,37.03
2022-10-22T07:06:21.954Z,35.92
2022-10-22T07:11:37.589Z,35.25
2022-10-22T07:16:43.301Z,38.75
2022-10-22T07:21:46.121Z,32.93
2022-10-22T07:26:49.577Z,34.30
2022-10-22T07:31:52.477Z,29.02
2022-10-22T07:36:57.338Z,23.10
2022-10-22T07:42:00.144Z,26.92
2022-10-22T07:47:02.888Z,27.83
2022-10-22T07:52:06.859Z,31.48
2022-10-22T07:57:09.538Z,28.25
2022-10-22T08:02:13.079Z,32.72
2022-10-22T08:07:16.130Z,32.25
2022-10-22T08:12:18.928Z,31.43
2022-10-22T08:17:21.579Z,22.75
2022-10-22T08:22:24.677Z,27.08
2022-10-22T08:27:27.562Z,25.48
2022-10-22T08:32:31.139Z,32.55
2022-10-22T08:37:34.068Z,20.27
2022-10-22T08:42:55.480Z,23.40
2022-10-22T08:48:40.389Z,21.08
2022-10-22T08:53:58.101Z,24.30
2022-10-22T08:59:07.128Z,26.90
2022-10-22T09:04:42.119Z,22.57
2022-10-22T09:09:51.345Z,25.90
2022-10-22T09:14:54.355Z,23.10
2022-10-22T09:19:57.234Z,21.33
2022-10-22T09:25:18.138Z,25.35
2022-10-22T09:30:30.148Z,23.03
2022-10-22T09:36:03.767Z,20.38
2022-10-22T09:41:06.759Z,17.92
2022-10-22T09:46:20.443Z,21.58
2022-10-22T09:51:25.725Z,18.30
2022-10-22T09:56:33.218Z,19.53
2022-10-22T10:01:38.978Z,22.83
2022-10-22T10:06:43.658Z,24.17
2022-10-22T10:12:01.337Z,26.08
2022-10-22T10:17:33.693Z,24.55
2022-10-22T10:22:49.358Z,32.10
2022-10-22T10:28:30.733Z,28.45
2022-10-22T10:34:17.291Z,28.08
2022-10-22T10:39:26.031Z,27.80
2022-10-22T10:44:32.074Z,29.60
2022-10-22T10:49:36.402Z,31.80
2022-10-22T10:55:05.206Z,27.88
2022-10-22T11:00:15.758Z,30.73
2022-10-22T11:05:33.539Z,31.48
2022-10-22T11:11:06.759Z,30.65
2022-10-22T11:16:45.219Z,35.27
2022-10-22T11:22:01.308Z,34.05
2022-10-22T11:27:06.980Z,35.63
2022-10-22T11:32:20.728Z,33.38
2022-10-22T11:37:27.577Z,31.65
2022-10-22T11:42:44.977Z,35.43
2022-10-22T11:48:06.413Z,31.83
2022-10-22T11:53:15.309Z,35.80
2022-10-22T11:58:33.027Z,33.38
2022-10-22T12:03:38.179Z,38.25
2022-10-22T12:08:53.457Z,44.67
2022-10-22T12:14:12.159Z,38.78
2022-10-22T12:19:18.879Z,36.15
2022-10-22T12:24:26.021Z,37.20
2022-10-22T12:29:32.430Z,43.83
2022-10-22T12:34:35.178Z,41.07
2022-10-22T12:39:37.917Z,36.75
2022-10-22T12:44:41.139Z,39.97
2022-10-22T12:49:47.938Z,34.53
2022-10-22T12:54:55.324Z,35.90
2022-10-22T12:59:58.049Z,34.43
2022-10-22T13:05:27.824Z,36.63
2022-10-22T13:10:39.312Z,32.25
2022-10-22T13:15:42.282Z,33.88
2022-10-22T13:21:22.516Z,34.63
2022-10-22T13:26:37.241Z,32.93
2022-10-22T13:31:47.406Z,35.88
2022-10-22T13:36:51.242Z,36.53
2022-10-22T13:41:54.310Z,39.40
2022-10-22T13:46:57.278Z,39.13
2022-10-22T13:52:01.288Z,48.17
2022-10-22T13:57:09.320Z,38.58
2022-10-22T14:02:13.747Z,36.42
2022-10-22T14:07:17.872Z,31.38
2022-10-22T14:12:20.593Z,33.83
2022-10-22T14:17:23.688Z,35.70
2022-10-22T14:22:28.722Z,35.65
2022-10-22T14:27:31.563Z,38.30
2022-10-22T14:32:34.495Z,40.13
2022-10-22T14:37:37.240Z,39.08
2022-10-22T14:42:43.512Z,38.37
2022-10-22T14:47:46.458Z,43.30
2022-10-22T14:52:49.203Z,42.35
2022-10-22T14:57:51.888Z,38.80
2022-10-22T15:02:56.100Z,35.45
2022-10-22T15:07:59.698Z,48.27
2022-10-22T15:13:02.527Z,43.67
2022-10-22T15:18:05.277Z,45.85
2022-10-22T15:23:08.009Z,45.63
2022-10-22T15:28:10.650Z,50.72
2022-10-22T15:33:13.408Z,51.70
2022-10-22T15:38:16.369Z,53.58
2022-10-22T15:43:19.168Z,54.88
2022-10-22T15:48:21.822Z,50.92
2022-10-22T15:53:24.629Z,54.20
2022-10-22T15:58:27.578Z,54.67
2022-10-22T16:08:39.010Z,53.72
2022-10-22T16:13:41.708Z,54.33
2022-10-22T16:18:44.509Z,58.92
2022-10-22T16:23:47.357Z,68.30
2022-10-22T16:28:50.097Z,69.97
2022-10-22T16:33:52.739Z,83.35
2022-10-22T16:38:56.777Z,71.47
2022-10-22T16:44:02.248Z,78.90
2022-10-22T16:49:06.166Z,83.73
2022-10-22T16:54:12.478Z,93.00
2022-10-22T16:59:15.598Z,85.45
2022-10-22T17:04:18.550Z,91.72
2022-10-22T17:09:21.603Z,88.82
2022-10-22T17:14:24.769Z,87.40
2022-10-22T17:19:28.118Z,87.88
2022-10-22T17:24:30.857Z,90.70
2022-10-22T17:29:33.679Z,70.30
2022-10-22T17:34:36.509Z,79.13
2022-10-22T17:39:39.258Z,79.50
2022-10-22T17:44:42.068Z,82.22
2022-10-22T17:49:45.150Z,85.80
2022-10-22T17:54:50.418Z,72.63
2022-10-22T17:59:53.159Z,70.57
2022-10-22T18:04:56.198Z,56.13
2022-10-22T18:09:58.884Z,59.67
2022-10-22T18:15:01.638Z,55.42
2022-10-22T18:20:04.671Z,54.17
2022-10-22T18:25:07.618Z,53.97
2022-10-22T18:30:10.737Z,46.43
2022-10-22T18:35:13.539Z,60.92
2022-10-22T18:40:16.359Z,66.80
2022-10-22T18:45:19.122Z,72.50
2022-10-22T18:50:21.986Z,78.47
2022-10-22T18:55:24.827Z,68.73
2022-10-22T19:00:27.732Z,59.50
2022-10-22T19:05:31.021Z,57.00
2022-10-22T19:10:35.230Z,44.22
2022-10-22T19:15:37.999Z,47.72
2022-10-22T19:20:40.884Z,44.03
2022-10-22T19:25:43.628Z,37.40
2022-10-22T19:30:46.461Z,39.03
2022-10-22T19:35:49.282Z,27.20
2022-10-22T19:40:51.959Z,34.03
2022-10-22T19:45:55.517Z,36.30
2022-10-22T19:51:00.538Z,30.38
2022-10-22T19:56:07.328Z,25.85
2022-10-22T20:01:12.411Z,23.13
2022-10-22T20:06:17.352Z,25.38
2022-10-22T20:11:26.760Z,14.60
2022-10-22T20:16:30.327Z,26.40
2022-10-22T20:21:34.398Z,36.95
2022-10-22T20:26:37.138Z,48.85
2022-10-22T20:31:40.098Z,52.45
2022-10-22T20:36:42.950Z,49.07
2022-10-22T20:41:45.798Z,51.53
2022-10-22T20:46:48.645Z,46.70
2022-10-22T20:51:51.458Z,36.60
2022-10-22T20:56:54.329Z,41.15
2022-10-22T21:01:57.018Z,41.27
2022-10-22T21:06:59.807Z,38.03
2022-10-22T21:12:06.649Z,34.47
2022-10-22T21:17:09.920Z,38.10
2022-10-22T21:22:12.709Z,34.55
2022-10-22T21:27:15.637Z,32.23
2022-10-22T21:32:18.368Z,38.33
2022-10-22T21:37:23.029Z,29.02
2022-10-22T21:42:25.789Z,30.70
2022-10-22T21:47:28.642Z,30.42
2022-10-22T21:52:31.571Z,29.03
2022-10-22T21:57:34.540Z,24.65
2022-10-22T22:02:37.508Z,23.88
2022-10-22T22:07:40.499Z,26.67
2022-10-22T22:12:43.506Z,21.83
2022-10-22T22:17:46.816Z,22.20
2022-10-22T22:22:49.870Z,23.33
2022-10-22T22:27:52.730Z,20.30
2022-10-22T22:32:55.383Z,24.02
2022-10-22T22:37:59.212Z,21.85
2022-10-22T22:43:01.929Z,19.97
2022-10-22T22:48:04.915Z,23.42
2022-10-22T22:53:07.674Z,20.30
2022-10-22T22:58:10.501Z,20.63
2022-10-22T23:03:13.168Z,22.30
2022-10-22T23:08:15.984Z,19.17
2022-10-22T23:13:18.766Z,18.13
2022-10-22T23:18:21.541Z,18.63
2022-10-22T23:23:24.265Z,14.57
2022-10-22T23:28:27.304Z,21.35
2022-10-22T23:33:30.084Z,20.87
2022-10-22T23:38:33.399Z,21.90
2022-10-22T23:43:37.908Z,22.08
2022-10-22T23:48:41.357Z,22.77
2022-10-22T23:53:45.104Z,23.13
2022-10-22T23:58:51.704Z,25.80
